Time;durP1;ratioP1;P1;durP2;ratioP2;P2;SDS_P1;SDS_P2;PMS_P1;PMS_P2;Temp;Humidity;BMP_temperature;BMP_pressure;BME280_temperature;BME280_humidity;BME280_pressure;Samples;Min_cycle;Max_cycle;Signal;HPM_P1;HPM_P2
2021/10/15 00:00:57;;;;;;;3.43;3.13;;;15.40;99.90;;;;;;6149338;23;20421;-68
2021/10/15 00:03:28;;;;;;;5.00;4.27;;;15.50;99.90;;;;;;6149476;23;20410;-69
2021/10/15 00:05:59;;;;;;;6.23;5.70;;;15.40;99.90;;;;;;6150633;23;20895;-70
2021/10/15 00:08:30;;;;;;;6.47;5.87;;;15.50;99.90;;;;;;6147961;23;20415;-69
2021/10/15 00:11:01;;;;;;;6.70;6.10;;;15.40;99.90;;;;;;6150693;23;20984;-69
2021/10/15 00:13:32;;;;;;;6.63;6.13;;;15.30;99.90;;;;;;6150552;23;20419;-69
2021/10/15 00:16:05;;;;;;;6.80;6.20;;;15.20;99.90;;;;;;6150718;23;20494;-68
2021/10/15 00:18:36;;;;;;;7.40;6.70;;;14.90;99.90;;;;;;6148787;23;20473;-69
2021/10/15 00:21:07;;;;;;;9.13;5.97;;;14.90;99.90;;;;;;6150926;23;20407;-69
2021/10/15 00:23:38;;;;;;;6.43;5.93;;;14.80;99.90;;;;;;6149992;23;20411;-69
2021/10/15 00:26:09;;;;;;;6.73;6.10;;;14.70;99.90;;;;;;6150456;23;20411;-69
2021/10/15 00:28:40;;;;;;;6.43;5.87;;;14.60;99.90;;;;;;6146730;23;20447;-69
2021/10/15 00:31:12;;;;;;;7.30;6.60;;;14.50;99.90;;;;;;6150202;23;20542;-69
2021/10/15 00:33:43;;;;;;;6.37;5.87;;;14.50;99.90;;;;;;6147630;23;20411;-68
2021/10/15 00:36:14;;;;;;;7.47;6.77;;;14.30;99.90;;;;;;6147654;23;20947;-67
2021/10/15 00:38:45;;;;;;;7.33;6.77;;;14.30;99.90;;;;;;6145277;23;20410;-68
2021/10/15 00:41:16;;;;;;;6.90;6.37;;;14.20;99.90;;;;;;6147989;23;20926;-67
2021/10/15 00:44:04;;;;;;;7.90;7.17;;;14.20;99.90;;;;;;6149753;23;20490;-68
2021/10/15 00:46:38;;;;;;;8.93;8.03;;;14.20;99.90;;;;;;6147794;23;20492;-69
2021/10/15 00:49:10;;;;;;;8.87;8.07;;;14.30;99.90;;;;;;6146949;23;20415;-68
2021/10/15 00:51:43;;;;;;;7.67;6.97;;;14.20;99.90;;;;;;6150171;23;20411;-68
2021/10/15 00:54:15;;;;;;;8.40;7.57;;;14.20;99.90;;;;;;6146147;23;20422;-69
2021/10/15 00:56:47;;;;;;;8.20;7.40;;;14.20;99.90;;;;;;6150631;23;20441;-68
2021/10/15 00:59:18;;;;;;;7.93;7.23;;;14.10;99.90;;;;;;6146895;23;20410;-73
2021/10/15 01:01:50;;;;;;;7.77;7.07;;;14.10;99.90;;;;;;6151740;23;20502;-67
2021/10/15 01:04:22;;;;;;;6.93;6.43;;;14.10;99.90;;;;;;6144103;23;20477;-69
2021/10/15 01:06:52;;;;;;;7.47;6.70;;;14.10;99.90;;;;;;6146423;23;20425;-67
2021/10/15 01:09:24;;;;;;;7.40;6.80;;;14.00;99.90;;;;;;6149763;23;20515;-67
2021/10/15 01:11:57;;;;;;;7.80;7.10;;;13.90;99.90;;;;;;6150559;23;20582;-70
2021/10/15 01:14:28;;;;;;;6.43;5.93;;;13.90;99.90;;;;;;6150401;23;20953;-69
2021/10/15 01:17:04;;;;;;;7.50;6.80;;;13.80;99.90;;;;;;6145751;23;20411;-68
2021/10/15 01:19:35;;;;;;;7.37;6.70;;;13.80;99.90;;;;;;6149418;23;20468;-69
2021/10/15 01:22:09;;;;;;;8.53;7.73;;;13.80;99.90;;;;;;6147825;23;20626;-68
2021/10/15 01:24:40;;;;;;;7.20;6.60;;;13.80;99.90;;;;;;6147844;23;20433;-69
2021/10/15 01:27:11;;;;;;;7.83;7.23;;;13.80;99.90;;;;;;6149949;23;20417;-68
2021/10/15 01:29:42;;;;;;;8.00;7.30;;;13.70;99.90;;;;;;6148148;23;20480;-68
2021/10/15 01:32:17;;;;;;;7.93;7.23;;;13.70;99.90;;;;;;6150224;23;20410;-68
2021/10/15 01:34:48;;;;;;;8.03;7.23;;;13.70;99.90;;;;;;6148100;23;20535;-70
2021/10/15 01:37:21;;;;;;;8.20;7.50;;;13.60;99.90;;;;;;6145454;23;20440;-68
2021/10/15 01:39:52;;;;;;;8.77;7.90;;;13.60;99.90;;;;;;6150152;23;20414;-70
2021/10/15 01:45:12;;;;;;;8.13;7.53;;;13.70;99.90;;;;;;6139545;23;20446;-70
2021/10/15 01:47:43;;;;;;;8.93;8.13;;;13.60;99.90;;;;;;6144743;23;20423;-70
2021/10/15 01:50:14;;;;;;;8.40;7.70;;;13.60;99.90;;;;;;6146138;23;20823;-71
2021/10/15 01:52:46;;;;;;;9.13;8.43;;;13.50;99.90;;;;;;6149196;23;20749;-66
2021/10/15 01:55:17;;;;;;;10.10;9.30;;;13.40;99.90;;;;;;6147857;23;20418;-71
2021/10/15 01:57:49;;;;;;;8.77;8.07;;;13.30;99.90;;;;;;6148051;23;20927;-76
2021/10/15 02:00:20;;;;;;;10.37;9.30;;;13.30;99.90;;;;;;6150205;23;20716;-76
2021/10/15 02:02:50;;;;;;;10.53;9.53;;;13.30;99.90;;;;;;6149464;23;20434;-76
2021/10/15 02:05:21;;;;;;;10.00;9.20;;;13.30;99.90;;;;;;6150499;23;20410;-77
2021/10/15 02:07:54;;;;;;;9.40;8.50;;;13.40;99.90;;;;;;6146550;23;20411;-76
2021/10/15 02:10:25;;;;;;;10.60;9.70;;;13.30;99.90;;;;;;6150435;23;20953;-75
2021/10/15 02:12:56;;;;;;;10.17;9.30;;;13.50;99.90;;;;;;6150018;23;20410;-73
2021/10/15 02:15:27;;;;;;;9.00;8.20;;;13.50;99.90;;;;;;6144111;23;20525;-71
2021/10/15 02:17:58;;;;;;;10.37;9.57;;;13.50;99.90;;;;;;6144144;23;20741;-71
2021/10/15 02:20:29;;;;;;;12.20;8.77;;;13.50;99.90;;;;;;6150842;23;20777;-71
2021/10/15 02:23:01;;;;;;;9.97;9.07;;;13.50;99.90;;;;;;6150772;23;20421;-72
2021/10/15 02:25:33;;;;;;;10.20;9.30;;;13.50;99.90;;;;;;6147425;23;20811;-73
2021/10/15 02:28:03;;;;;;;10.40;9.30;;;13.40;99.90;;;;;;6148722;23;20482;-72
2021/10/15 02:30:34;;;;;;;10.43;9.63;;;13.40;99.90;;;;;;6149014;23;20446;-72
2021/10/15 02:33:06;;;;;;;11.30;10.40;;;13.30;99.90;;;;;;6147337;23;20411;-71
2021/10/15 02:35:36;;;;;;;10.73;9.73;;;13.30;99.90;;;;;;6150313;23;20425;-72
2021/10/15 02:38:09;;;;;;;10.10;9.10;;;13.20;99.90;;;;;;6148705;23;20529;-73
2021/10/15 02:40:40;;;;;;;9.57;8.67;;;13.20;99.90;;;;;;6150895;23;20744;-72
2021/10/15 02:43:11;;;;;;;10.80;9.10;;;13.20;99.90;;;;;;6150260;23;20418;-69
2021/10/15 02:45:42;;;;;;;9.80;8.97;;;13.20;99.90;;;;;;6146229;23;20445;-70
2021/10/15 02:48:12;;;;;;;10.50;9.40;;;13.10;99.90;;;;;;6142724;23;20411;-71
2021/10/15 02:50:44;;;;;;;10.23;9.23;;;13.10;99.90;;;;;;6142668;23;20516;-70
2021/10/15 02:53:16;;;;;;;10.37;9.47;;;13.00;99.90;;;;;;6142460;23;20453;-72
2021/10/15 02:55:47;;;;;;;10.23;9.40;;;13.00;99.90;;;;;;6145742;23;20411;-71
2021/10/15 02:58:18;;;;;;;10.00;9.00;;;13.00;99.90;;;;;;6147352;23;20411;-71
2021/10/15 03:00:50;;;;;;;10.43;9.50;;;12.90;99.90;;;;;;6147574;23;20514;-71
2021/10/15 03:03:21;;;;;;;10.10;9.20;;;12.90;99.90;;;;;;6151141;23;20450;-72
2021/10/15 03:05:51;;;;;;;9.60;8.80;;;12.80;99.90;;;;;;6150400;23;20802;-74
2021/10/15 03:08:24;;;;;;;10.50;9.57;;;12.70;99.90;;;;;;6148375;23;20422;-71
2021/10/15 03:10:55;;;;;;;10.47;9.57;;;12.70;99.90;;;;;;6151564;23;20706;-69
2021/10/15 03:13:26;;;;;;;9.00;8.30;;;12.60;99.90;;;;;;6144638;23;20467;-69
2021/10/15 03:15:56;;;;;;;10.90;9.87;;;12.60;99.90;;;;;;6149160;23;20465;-70
2021/10/15 03:18:27;;;;;;;10.13;9.20;;;12.60;99.90;;;;;;6143922;23;20543;-71
2021/10/15 03:20:58;;;;;;;11.00;10.00;;;12.60;99.90;;;;;;6145602;23;20444;-71
2021/10/15 03:23:31;;;;;;;10.77;9.77;;;12.60;99.90;;;;;;6135731;23;20560;-71
2021/10/15 03:26:01;;;;;;;10.13;9.23;;;12.50;99.90;;;;;;6146840;23;20411;-71
2021/10/15 03:28:32;;;;;;;11.83;10.70;;;12.50;99.90;;;;;;6149280;23;20937;-70
2021/10/15 03:31:03;;;;;;;10.90;9.90;;;12.50;99.90;;;;;;6149584;23;20497;-69
2021/10/15 03:33:34;;;;;;;11.07;9.97;;;12.50;99.90;;;;;;6144965;23;20415;-72
2021/10/15 03:36:05;;;;;;;12.53;11.37;;;12.50;99.90;;;;;;6147469;23;20411;-72
2021/10/15 03:38:38;;;;;;;13.10;12.00;;;12.40;99.90;;;;;;6149310;23;20450;-71
2021/10/15 03:41:08;;;;;;;12.43;11.43;;;12.40;99.90;;;;;;6146972;23;20439;-71
2021/10/15 03:43:39;;;;;;;12.30;11.20;;;12.40;99.90;;;;;;6145659;23;20443;-71
2021/10/15 03:46:10;;;;;;;12.57;11.37;;;12.40;99.90;;;;;;6147874;23;20453;-70
2021/10/15 03:48:41;;;;;;;11.83;10.73;;;12.40;99.90;;;;;;6147310;23;20411;-71
2021/10/15 03:51:12;;;;;;;14.20;12.90;;;12.40;99.90;;;;;;6148670;23;20450;-70
2021/10/15 03:53:44;;;;;;;12.67;11.57;;;12.50;99.90;;;;;;6151576;23;20415;-69
2021/10/15 03:56:15;;;;;;;12.17;11.00;;;12.50;99.90;;;;;;6151910;23;20421;-71
2021/10/15 03:58:46;;;;;;;13.90;12.60;;;12.60;99.90;;;;;;6150988;23;20883;-71
2021/10/15 04:01:17;;;;;;;12.50;11.40;;;12.50;99.90;;;;;;6145705;23;20410;-71
2021/10/15 04:04:01;;;;;;;12.87;11.57;;;12.60;99.90;;;;;;6150329;23;20411;-71
2021/10/15 04:06:39;;;;;;;13.63;12.40;;;12.60;99.90;;;;;;6149645;23;20435;-71
2021/10/15 04:09:16;;;;;;;13.60;12.50;;;12.60;99.90;;;;;;6148932;23;20481;-72
2021/10/15 04:11:47;;;;;;;14.50;13.00;;;12.70;99.90;;;;;;6151191;23;20452;-72
2021/10/15 04:14:20;;;;;;;13.17;11.87;;;12.70;99.90;;;;;;6148328;23;20418;-72
2021/10/15 04:16:51;;;;;;;13.30;12.00;;;12.70;99.90;;;;;;6149035;23;21014;-71
2021/10/15 04:19:22;;;;;;;14.03;12.73;;;12.70;99.90;;;;;;6149371;23;20724;-72
2021/10/15 04:21:56;;;;;;;20.03;12.63;;;12.70;99.90;;;;;;6149845;23;20430;-72
2021/10/15 04:24:28;;;;;;;14.63;13.33;;;12.70;99.90;;;;;;6148030;23;20414;-70
2021/10/15 04:27:01;;;;;;;13.97;12.70;;;12.70;99.90;;;;;;6151118;23;20456;-71
2021/10/15 04:29:32;;;;;;;13.47;12.37;;;12.70;99.90;;;;;;6148994;23;20415;-73
2021/10/15 04:32:03;;;;;;;14.50;13.00;;;12.70;99.90;;;;;;6148693;23;20980;-69
2021/10/15 04:34:34;;;;;;;13.83;12.67;;;12.70;99.90;;;;;;6146437;23;20418;-71
2021/10/15 04:37:05;;;;;;;13.67;12.37;;;12.70;99.90;;;;;;6147676;23;20411;-71
2021/10/15 04:39:37;;;;;;;13.83;12.63;;;12.70;99.90;;;;;;6151098;23;20415;-71
2021/10/15 04:42:08;;;;;;;13.73;12.50;;;12.70;99.90;;;;;;6150863;23;20407;-71
2021/10/15 04:44:39;;;;;;;13.40;12.07;;;12.70;99.90;;;;;;6151030;23;20417;-71
2021/10/15 04:47:10;;;;;;;12.80;11.67;;;12.70;99.90;;;;;;6149330;23;20411;-71
2021/10/15 04:49:41;;;;;;;13.20;11.90;;;12.70;99.90;;;;;;6149988;23;20891;-71
2021/10/15 04:52:11;;;;;;;19.00;13.00;;;12.80;99.90;;;;;;6148679;23;20525;-71
2021/10/15 04:54:44;;;;;;;13.20;11.93;;;12.80;99.90;;;;;;6148797;23;20897;-71
2021/10/15 04:57:15;;;;;;;13.37;12.07;;;12.80;99.90;;;;;;6151297;23;20417;-71
2021/10/15 04:59:45;;;;;;;13.10;11.90;;;12.80;99.90;;;;;;6149223;23;20919;-71
2021/10/15 05:02:17;;;;;;;14.77;13.47;;;12.80;99.90;;;;;;6148068;23;20501;-71
2021/10/15 05:04:48;;;;;;;18.00;15.50;;;12.80;99.90;;;;;;6150868;23;20450;-72
2021/10/15 05:07:19;;;;;;;19.77;17.00;;;12.80;99.90;;;;;;6148688;23;20432;-72
2021/10/15 05:09:51;;;;;;;18.30;16.50;;;12.80;99.90;;;;;;6148951;23;20410;-71
2021/10/15 05:12:22;;;;;;;17.20;15.50;;;12.80;99.90;;;;;;6148268;23;20446;-70
2021/10/15 05:14:54;;;;;;;17.00;15.27;;;12.80;99.90;;;;;;6149854;23;20925;-71
2021/10/15 05:17:25;;;;;;;14.43;13.23;;;12.80;99.90;;;;;;6146447;23;21308;-72
2021/10/15 05:19:55;;;;;;;16.07;13.43;;;12.80;99.90;;;;;;6150182;23;20411;-72
2021/10/15 05:22:26;;;;;;;14.10;12.83;;;12.80;99.90;;;;;;6150013;23;20407;-71
2021/10/15 05:24:59;;;;;;;14.70;13.30;;;12.80;99.90;;;;;;6149043;23;20414;-71
2021/10/15 05:27:30;;;;;;;14.23;12.83;;;12.70;99.90;;;;;;6150599;23;20420;-72
2021/10/15 05:30:01;;;;;;;14.03;12.73;;;12.70;99.90;;;;;;6148579;23;20934;-71
2021/10/15 05:32:31;;;;;;;12.40;11.30;;;12.70;99.90;;;;;;6149109;23;20504;-71
2021/10/15 05:35:02;;;;;;;13.77;12.47;;;12.70;99.90;;;;;;6150546;23;20417;-71
2021/10/15 05:37:33;;;;;;;13.67;12.37;;;12.70;99.90;;;;;;6146382;23;20411;-71
2021/10/15 05:40:07;;;;;;;14.53;13.13;;;12.60;99.90;;;;;;6151047;23;20992;-71
2021/10/15 05:42:38;;;;;;;12.90;11.63;;;12.60;99.90;;;;;;6150956;23;20411;-71
2021/10/15 05:45:09;;;;;;;13.53;12.30;;;12.60;99.90;;;;;;6150792;23;20434;-71
2021/10/15 05:47:40;;;;;;;13.70;12.40;;;12.60;99.90;;;;;;6147669;23;20418;-70
2021/10/15 05:50:12;;;;;;;11.77;10.67;;;12.60;99.90;;;;;;6147878;23;20586;-71
2021/10/15 05:52:45;;;;;;;13.23;11.97;;;12.60;99.90;;;;;;6150411;23;20443;-71
2021/10/15 05:55:32;;;;;;;13.33;12.13;;;12.60;99.90;;;;;;6148472;23;20411;-71
2021/10/15 06:00:55;;;;;;;13.43;12.13;;;12.60;99.90;;;;;;6150833;23;20959;-70
2021/10/15 06:03:26;;;;;;;14.00;12.70;;;12.50;99.90;;;;;;6146639;23;20411;-70
2021/10/15 06:14:22;;;;;;;12.13;10.93;;;12.20;99.90;;;;;;6149236;23;20443;-69
2021/10/15 06:16:54;;;;;;;12.90;11.70;;;12.10;99.90;;;;;;6147891;23;20821;-71
2021/10/15 06:19:26;;;;;;;12.10;11.00;;;12.20;99.90;;;;;;6149064;23;20451;-70
2021/10/15 06:21:57;;;;;;;13.10;11.77;;;12.10;99.90;;;;;;6144802;23;20508;-70
2021/10/15 06:24:28;;;;;;;11.97;10.97;;;12.10;99.90;;;;;;6144563;23;20429;-70
2021/10/15 06:27:00;;;;;;;12.40;11.30;;;12.10;99.90;;;;;;6150254;23;20411;-71
2021/10/15 06:29:31;;;;;;;12.90;11.60;;;12.10;99.90;;;;;;6148717;23;20415;-71
2021/10/15 06:32:02;;;;;;;13.47;12.07;;;12.00;99.90;;;;;;6150808;23;20410;-71
2021/10/15 06:34:33;;;;;;;11.30;10.30;;;12.00;99.90;;;;;;6148494;23;20437;-71
2021/10/15 06:37:04;;;;;;;11.53;10.43;;;12.00;99.90;;;;;;6148557;23;20522;-70
2021/10/15 06:39:34;;;;;;;13.10;11.87;;;12.00;99.90;;;;;;6151834;23;20462;-69
2021/10/15 06:42:07;;;;;;;11.40;10.40;;;12.00;99.90;;;;;;6150583;23;20517;-70
2021/10/15 06:44:38;;;;;;;12.50;11.30;;;12.00;99.90;;;;;;6150364;23;20411;-71
2021/10/15 06:47:09;;;;;;;12.40;11.10;;;12.10;99.90;;;;;;6148789;23;20438;-71
2021/10/15 06:49:40;;;;;;;12.00;11.00;;;12.10;99.90;;;;;;6148546;23;20410;-70
2021/10/15 06:52:10;;;;;;;12.93;11.63;;;12.00;99.90;;;;;;6150346;23;20762;-70
2021/10/15 06:54:41;;;;;;;12.30;11.20;;;12.00;99.90;;;;;;6150297;23;20442;-69
2021/10/15 06:57:14;;;;;;;12.00;10.90;;;12.00;99.90;;;;;;6152270;23;20415;-70
2021/10/15 06:59:45;;;;;;;12.23;10.93;;;12.00;99.90;;;;;;6152549;23;20411;-70
2021/10/15 07:02:16;;;;;;;12.17;11.07;;;12.00;99.90;;;;;;6151882;23;20419;-70
2021/10/15 07:04:47;;;;;;;11.97;10.77;;;12.00;99.90;;;;;;6152105;23;20441;-70
2021/10/15 07:07:17;;;;;;;12.53;11.13;;;12.00;99.90;;;;;;6149506;23;20918;-71
2021/10/15 07:09:48;;;;;;;12.80;11.50;;;12.00;99.90;;;;;;6150512;23;20914;-71
2021/10/15 07:12:21;;;;;;;12.00;10.70;;;11.90;99.90;;;;;;6150513;23;20465;-70
2021/10/15 07:14:51;;;;;;;10.90;9.90;;;11.90;99.90;;;;;;6150014;23;20848;-70
2021/10/15 07:17:22;;;;;;;12.03;10.80;;;11.90;99.90;;;;;;6144628;23;20729;-70
2021/10/15 07:19:53;;;;;;;11.27;10.33;;;11.90;99.90;;;;;;6152829;23;20438;-71
2021/10/15 07:22:24;;;;;;;12.23;11.13;;;11.90;99.90;;;;;;6151898;23;20963;-71
2021/10/15 07:24:55;;;;;;;12.63;11.43;;;11.90;99.90;;;;;;6150505;23;20498;-72
2021/10/15 07:27:27;;;;;;;11.90;10.63;;;11.80;99.90;;;;;;6149313;23;20418;-71
2021/10/15 07:29:58;;;;;;;12.57;11.40;;;11.80;99.90;;;;;;6151419;23;20411;-71
2021/10/15 07:32:29;;;;;;;11.17;9.90;;;11.70;99.90;;;;;;6150503;23;20426;-72
2021/10/15 07:35:00;;;;;;;12.20;11.13;;;11.70;99.90;;;;;;6150496;23;20713;-72
2021/10/15 07:37:30;;;;;;;11.67;10.47;;;11.60;99.90;;;;;;6149725;23;20410;-69
2021/10/15 07:40:01;;;;;;;12.47;11.27;;;11.50;99.90;;;;;;6152073;23;20469;-69
2021/10/15 07:42:34;;;;;;;11.77;10.67;;;11.40;99.90;;;;;;6151194;23;20410;-70
2021/10/15 07:45:05;;;;;;;12.13;10.83;;;11.40;99.90;;;;;;6148100;23;20407;-70
2021/10/15 07:47:45;;;;;;;11.10;10.17;;;11.30;99.90;;;;;;6149007;23;20467;-70
2021/10/15 07:50:16;;;;;;;12.10;10.90;;;11.20;99.90;;;;;;6148379;23;20753;-70
2021/10/15 07:52:47;;;;;;;13.23;11.93;;;11.10;99.90;;;;;;6150275;23;20501;-70
2021/10/15 07:55:18;;;;;;;11.57;10.27;;;11.00;99.90;;;;;;6149324;23;20478;-69
2021/10/15 07:57:51;;;;;;;12.38;11.07;;;10.90;99.90;;;;;;6149963;23;20411;-71
2021/10/15 08:00:22;;;;;;;12.80;11.60;;;10.90;99.90;;;;;;6150098;23;20654;-71
2021/10/15 08:02:55;;;;;;;13.47;12.30;;;10.80;99.90;;;;;;6148265;23;20411;-71
2021/10/15 08:05:26;;;;;;;12.77;11.37;;;10.80;99.90;;;;;;6151637;23;20442;-71
2021/10/15 08:07:57;;;;;;;11.97;10.97;;;10.80;99.90;;;;;;6148103;23;20411;-72
2021/10/15 08:10:28;;;;;;;11.70;10.70;;;10.70;99.90;;;;;;6150444;23;20411;-71
2021/10/15 08:13:01;;;;;;;12.30;11.20;;;10.70;99.90;;;;;;6147829;23;20414;-71
2021/10/15 08:15:32;;;;;;;12.67;11.57;;;10.60;99.90;;;;;;6147086;23;20406;-72
2021/10/15 08:18:03;;;;;;;11.77;10.67;;;10.60;99.90;;;;;;6146302;23;20420;-71
2021/10/15 08:20:34;;;;;;;13.00;11.70;;;10.60;99.90;;;;;;6149445;23;20417;-71
2021/10/15 08:23:05;;;;;;;13.40;12.00;;;10.60;99.90;;;;;;6149443;23;20417;-70
2021/10/15 08:25:37;;;;;;;12.27;10.77;;;10.50;99.90;;;;;;6147333;23;21037;-71
2021/10/15 08:28:13;;;;;;;13.67;12.07;;;10.40;99.90;;;;;;6149998;23;20450;-71
2021/10/15 08:31:04;;;;;;;12.50;11.50;;;10.50;99.90;;;;;;6151180;23;20922;-72
2021/10/15 08:33:35;;;;;;;14.23;12.93;;;10.50;99.90;;;;;;6148829;23;20203;-71
2021/10/15 08:36:06;;;;;;;13.67;12.27;;;10.50;99.90;;;;;;6150625;23;20513;-71
2021/10/15 08:38:37;;;;;;;13.00;11.80;;;10.50;99.90;;;;;;6146049;23;20411;-71
2021/10/15 08:41:08;;;;;;;12.90;11.80;;;10.50;99.90;;;;;;6148596;23;20517;-71
2021/10/15 08:43:42;;;;;;;12.35;11.10;;;10.40;99.90;;;;;;6145064;23;20425;-71
2021/10/15 08:46:13;;;;;;;13.47;12.17;;;10.50;99.90;;;;;;6149094;23;20294;-72
2021/10/15 08:48:44;;;;;;;13.30;12.00;;;10.40;99.90;;;;;;6146385;23;20761;-71
2021/10/15 08:51:16;;;;;;;14.07;12.10;;;10.40;99.90;;;;;;6149595;23;20190;-70
2021/10/15 08:53:48;;;;;;;12.30;11.20;;;10.40;99.90;;;;;;6149040;23;20443;-70
2021/10/15 08:56:20;;;;;;;13.00;11.90;;;10.40;99.90;;;;;;6148415;23;20183;-71
2021/10/15 08:58:59;;;;;;;14.85;12.43;;;10.30;99.90;;;;;;6149413;23;20183;-71
2021/10/15 09:01:40;;;;;;;12.00;10.90;;;10.20;99.90;;;;;;6150153;23;20261;-71
2021/10/15 09:04:11;;;;;;;13.32;11.95;;;10.10;99.90;;;;;;6147831;23;20518;-71
2021/10/15 09:06:43;;;;;;;15.60;12.27;;;10.10;99.90;;;;;;6147258;23;20521;-72
2021/10/15 09:09:16;;;;;;;13.63;12.23;;;10.10;99.90;;;;;;6147600;23;20423;-74
2021/10/15 09:16:00;;;;;;;12.95;11.10;;;10.00;99.90;;;;;;6134579;23;20548;-69
2021/10/15 09:18:32;;;;;;;12.13;10.93;;;9.90;99.90;;;;;;6147799;23;20266;-69
2021/10/15 09:21:16;;;;;;;12.25;11.05;;;9.80;99.90;;;;;;6149080;23;20262;-71
2021/10/15 09:23:49;;;;;;;13.50;12.20;;;9.80;99.90;;;;;;6150152;23;20183;-71
2021/10/15 09:26:20;;;;;;;12.55;11.35;;;9.80;99.90;;;;;;6148496;23;20262;-70
2021/10/15 09:28:51;;;;;;;13.18;11.98;;;9.90;99.90;;;;;;6148094;23;20183;-71
2021/10/15 09:31:24;;;;;;;13.45;12.15;;;9.80;99.90;;;;;;6148146;23;21062;-72
2021/10/15 09:33:57;;;;;;;13.85;12.57;;;9.80;99.90;;;;;;6147461;23;20579;-71
2021/10/15 09:36:28;;;;;;;14.88;13.38;;;9.70;99.90;;;;;;6142870;23;20205;-71
2021/10/15 09:38:58;;;;;;;14.75;12.18;;;9.80;99.90;;;;;;6144714;23;20191;-71
2021/10/15 09:41:40;;;;;;;13.82;12.35;;;9.70;99.90;;;;;;6150380;23;20182;-71
2021/10/15 09:44:32;;;;;;;13.88;12.57;;;9.70;99.90;;;;;;6146563;23;20179;-71
2021/10/15 09:47:21;;;;;;;12.70;11.60;;;9.60;99.90;;;;;;6148441;23;20203;-71
2021/10/15 09:49:54;;;;;;;13.45;12.10;;;9.50;99.90;;;;;;6148921;23;20433;-71
2021/10/15 09:52:41;;;;;;;13.38;11.63;;;9.40;99.90;;;;;;6147899;23;20183;-71
2021/10/15 09:55:17;;;;;;;12.07;11.00;;;9.40;99.90;;;;;;6147500;23;20216;-71
2021/10/15 09:57:50;;;;;;;13.88;12.20;;;9.40;99.90;;;;;;6146858;23;20270;-72
2021/10/15 10:00:23;;;;;;;13.98;12.77;;;9.40;99.90;;;;;;6148029;23;20266;-72
2021/10/15 10:02:56;;;;;;;13.40;11.75;;;9.30;99.90;;;;;;6147494;23;20191;-70
2021/10/15 10:05:27;;;;;;;13.20;11.90;;;9.20;99.90;;;;;;6148655;23;20650;-71
2021/10/15 10:07:58;;;;;;;13.20;11.90;;;9.20;99.90;;;;;;6145314;23;20209;-71
2021/10/15 10:10:32;;;;;;;12.93;11.73;;;9.30;99.90;;;;;;6150332;23;20193;-71
2021/10/15 10:13:03;;;;;;;15.20;13.60;;;9.20;99.90;;;;;;6150558;23;20190;-71
2021/10/15 10:15:37;;;;;;;14.45;12.95;;;9.20;99.90;;;;;;6150414;23;20250;-72
2021/10/15 10:18:15;;;;;;;13.25;12.00;;;9.20;99.90;;;;;;6149450;23;20182;-71
2021/10/15 10:20:49;;;;;;;14.90;13.13;;;9.10;99.90;;;;;;6147266;23;20187;-71
2021/10/15 10:23:25;;;;;;;11.55;10.48;;;9.10;99.90;;;;;;6147214;23;20183;-71
2021/10/15 10:26:00;;;;;;;12.68;11.48;;;9.10;99.90;;;;;;6148634;23;20179;-71
2021/10/15 10:28:32;;;;;;;13.75;12.45;;;9.10;99.90;;;;;;6149865;23;20186;-72
2021/10/15 10:31:05;;;;;;;14.35;13.00;;;9.00;99.90;;;;;;6150250;23;20210;-72
2021/10/15 10:33:56;;;;;;;15.23;11.98;;;9.00;99.90;;;;;;6145691;23;20193;-71
2021/10/15 10:36:29;;;;;;;13.43;12.02;;;8.90;99.90;;;;;;6147720;23;20209;-71
2021/10/15 10:39:20;;;;;;;14.88;13.48;;;8.90;99.90;;;;;;6150691;23;20182;-71
2021/10/15 10:42:04;;;;;;;14.10;12.68;;;8.90;99.90;;;;;;6149873;23;20495;-71
2021/10/15 10:44:36;;;;;;;14.32;12.95;;;8.90;99.90;;;;;;6151661;23;20261;-70
2021/10/15 10:47:17;;;;;;;14.50;13.00;;;8.80;99.90;;;;;;6148418;23;20507;-70
2021/10/15 10:50:13;;;;;;;15.02;13.40;;;8.80;99.90;;;;;;6150357;23;20187;-71
2021/10/15 10:53:07;;;;;;;13.70;12.40;;;8.80;99.90;;;;;;6150260;23;20193;-71
2021/10/15 10:55:43;;;;;;;13.05;11.95;;;8.70;99.90;;;;;;6149986;23;20699;-68
2021/10/15 10:58:35;;;;;;;13.13;11.98;;;8.60;99.90;;;;;;6146852;23;20187;-72
2021/10/15 11:01:25;;;;;;;13.27;12.07;;;8.60;99.90;;;;;;6149853;23;20711;-71
2021/10/15 11:03:57;;;;;;;14.10;12.88;;;8.50;99.90;;;;;;6151133;23;20215;-70
2021/10/15 11:06:57;;;;;;;13.60;12.40;;;8.50;99.90;;;;;;6149796;23;20179;-71
2021/10/15 11:09:32;;;;;;;14.43;12.80;;;8.40;99.90;;;;;;6148236;23;20221;-71
2021/10/15 11:12:04;;;;;;;14.48;12.93;;;8.40;99.90;;;;;;6152008;23;20221;-71
2021/10/15 11:14:56;;;;;;;16.58;12.52;;;8.50;99.90;;;;;;6147581;23;20571;-71
2021/10/15 11:17:29;;;;;;;13.80;12.55;;;8.40;99.90;;;;;;6146751;23;20266;-71
2021/10/15 11:20:12;;;;;;;13.90;12.60;;;8.30;99.90;;;;;;6149796;23;20216;-72
2021/10/15 11:22:49;;;;;;;14.48;12.98;;;8.40;99.90;;;;;;6151900;23;20300;-70
2021/10/15 11:25:20;;;;;;;14.35;12.68;;;8.40;99.90;;;;;;6146865;23;20194;-72
2021/10/15 11:27:53;;;;;;;13.68;12.27;;;8.40;99.90;;;;;;6148193;23;20195;-71
2021/10/15 11:30:25;;;;;;;12.40;11.40;;;8.30;99.90;;;;;;6150329;23;20290;-71
2021/10/15 11:32:56;;;;;;;12.50;11.20;;;8.20;99.90;;;;;;6150810;23;20184;-71
2021/10/15 11:35:30;;;;;;;13.38;12.07;;;8.20;99.90;;;;;;6148676;23;20514;-70
2021/10/15 11:38:05;;;;;;;13.20;11.95;;;8.10;99.90;;;;;;6146202;23;20266;-70
2021/10/15 11:40:41;;;;;;;12.25;11.05;;;8.10;99.90;;;;;;6148067;23;20187;-70
2021/10/15 11:43:15;;;;;;;15.23;12.07;;;8.10;99.90;;;;;;6149582;23;20262;-70
2021/10/15 11:45:48;;;;;;;13.88;12.45;;;8.10;99.90;;;;;;6149893;23;20283;-71
2021/10/15 11:48:20;;;;;;;12.23;11.15;;;8.10;99.90;;;;;;6148142;23;20190;-70
2021/10/15 11:50:58;;;;;;;14.13;12.73;;;8.10;99.90;;;;;;6149640;23;20217;-70
2021/10/15 11:53:33;;;;;;;13.55;12.15;;;8.00;99.90;;;;;;6149358;23;20234;-70
2021/10/15 11:56:07;;;;;;;12.63;10.40;;;8.00;99.90;;;;;;6150495;23;20209;-70
2021/10/15 11:58:40;;;;;;;12.73;11.57;;;8.00;99.90;;;;;;6148733;23;20596;-70
2021/10/15 12:01:14;;;;;;;12.07;10.98;;;7.90;99.90;;;;;;6147801;23;20179;-71
2021/10/15 12:03:49;;;;;;;13.50;12.30;;;7.80;99.90;;;;;;6147855;23;20560;-70
2021/10/15 12:06:25;;;;;;;11.45;10.45;;;7.80;99.90;;;;;;6149261;23;20191;-70
2021/10/15 12:09:03;;;;;;;10.35;9.38;;;7.80;99.90;;;;;;6148969;23;20187;-70
2021/10/15 12:11:47;;;;;;;12.65;11.45;;;7.80;99.90;;;;;;6151062;23;20201;-70
2021/10/15 12:14:21;;;;;;;13.27;11.70;;;7.80;99.90;;;;;;6147429;23;20187;-70
2021/10/15 12:16:54;;;;;;;13.10;11.90;;;7.80;99.90;;;;;;6147062;23;20234;-70
2021/10/15 12:19:28;;;;;;;17.35;13.85;;;7.80;99.90;;;;;;6148008;23;20663;-70
2021/10/15 12:22:05;;;;;;;13.07;11.88;;;7.80;99.90;;;;;;6149448;23;20183;-70
2021/10/15 12:24:39;;;;;;;12.90;11.70;;;7.80;99.90;;;;;;6148809;23;20286;-69
2021/10/15 12:27:14;;;;;;;12.52;11.23;;;7.90;99.90;;;;;;6148628;23;20703;-70
2021/10/15 12:29:47;;;;;;;14.35;11.48;;;7.90;99.90;;;;;;6148087;23;20183;-70
2021/10/15 12:32:21;;;;;;;12.75;11.55;;;7.90;99.90;;;;;;6147432;23;20210;-70
2021/10/15 12:35:07;;;;;;;11.93;10.70;;;7.80;99.90;;;;;;6149559;23;20545;-70
2021/10/15 12:37:55;;;;;;;12.80;11.48;;;7.70;99.90;;;;;;6145534;23;20302;-70
2021/10/15 12:40:40;;;;;;;12.25;10.88;;;7.80;99.90;;;;;;6147627;23;20187;-70
2021/10/15 12:43:16;;;;;;;12.48;11.27;;;7.80;99.90;;;;;;6150923;23;20189;-71
2021/10/15 12:46:00;;;;;;;13.50;11.40;;;7.70;99.90;;;;;;6148957;23;20283;-70
2021/10/15 12:48:34;;;;;;;11.90;10.80;;;7.70;99.90;;;;;;6145200;23;20604;-70
2021/10/15 12:51:06;;;;;;;12.88;11.57;;;7.60;99.90;;;;;;6147686;23;20573;-70
2021/10/15 12:53:39;;;;;;;12.38;10.80;;;7.50;99.90;;;;;;6146300;23;20617;-70
2021/10/15 12:56:19;;;;;;;11.85;10.55;;;7.60;99.90;;;;;;6145258;23;20691;-69
2021/10/15 12:58:52;;;;;;;13.60;12.13;;;7.50;99.90;;;;;;6150743;23;20195;-69
2021/10/15 13:01:25;;;;;;;13.00;11.73;;;7.50;99.90;;;;;;6148999;23;20183;-70
2021/10/15 13:03:57;;;;;;;12.18;10.98;;;7.50;99.90;;;;;;6147759;23;20636;-70
2021/10/15 13:06:31;;;;;;;12.00;10.68;;;7.50;99.90;;;;;;6147112;23;20528;-70
2021/10/15 13:09:04;;;;;;;12.45;11.25;;;7.50;99.90;;;;;;6148796;23;20262;-70
2021/10/15 13:11:36;;;;;;;11.70;10.57;;;7.40;99.90;;;;;;6151113;23;20190;-70
2021/10/15 13:14:07;;;;;;;12.43;10.93;;;7.40;99.90;;;;;;6147566;23;20199;-70
2021/10/15 13:16:38;;;;;;;12.30;11.00;;;7.40;99.90;;;;;;6146941;23;20207;-70
2021/10/15 13:19:08;;;;;;;13.02;11.02;;;7.30;99.90;;;;;;6148268;23;20183;-69
2021/10/15 13:21:40;;;;;;;10.32;9.30;;;7.30;99.90;;;;;;6148710;23;20484;-69